Time,TemperatureF,DewpointF,PressureIn,WindDirection,WindDirectionDegrees,WindSpeedMPH,WindSpeedGustMPH,Humidity,HourlyPrecipIn,Conditions,Clouds,dailyrainin,SoftwareType,DateUTC
2013-02-02 00:05:00,71.5,63.2,30.04,East,92,10.0,17.0,75,0.00,,,0.00,Wunderground v.1.15,2013-02-02 10:05:00,
2013-02-02 00:15:00,71.4,63.1,30.04,ESE,102,10.0,13.0,75,0.00,,,0.00,Wunderground v.1.15,2013-02-02 10:15:00,
2013-02-02 00:25:00,71.3,63.0,30.04,ESE,108,9.0,14.0,75,0.00,,,0.00,Wunderground v.1.15,2013-02-02 10:25:00,
2013-02-02 00:30:00,71.5,62.8,30.03,ENE,76,10.0,10.0,74,0.00,,,0.00,Wunderground v.1.15,2013-02-02 10:30:00,
2013-02-02 00:40:00,71.5,62.8,30.03,ESE,114,10.0,20.0,74,0.00,,,0.00,Wunderground v.1.15,2013-02-02 10:40:00,
2013-02-02 00:50:00,71.5,62.8,30.03,ESE,104,11.0,12.0,74,0.00,,,0.00,Wunderground v.1.15,2013-02-02 10:50:00,
2013-02-02 01:00:00,71.5,62.4,30.03,ENE,78,11.0,11.0,73,0.00,,,0.00,Wunderground v.1.15,2013-02-02 11:00:00,
2013-02-02 01:05:00,71.5,62.8,30.02,ESE,105,10.0,11.0,74,0.00,,,0.00,Wunderground v.1.15,2013-02-02 11:05:00,
2013-02-02 01:15:00,71.4,62.7,30.03,ENE,78,9.0,12.0,74,0.00,,,0.00,Wunderground v.1.15,2013-02-02 11:15:00,
2013-02-02 01:25:00,71.3,63.0,30.03,East,95,8.0,9.0,75,0.00,,,0.00,Wunderground v.1.15,2013-02-02 11:25:00,
2013-02-02 01:35:00,71.3,63.3,30.03,ESE,116,9.0,9.0,76,0.00,,,0.00,Wunderground v.1.15,2013-02-02 11:35:00,
2013-02-02 01:45:00,71.3,63.3,30.03,East,89,8.0,9.0,76,0.00,,,0.00,Wunderground v.1.15,2013-02-02 11:45:00,
2013-02-02 01:55:00,71.4,63.4,30.02,ESE,106,9.0,9.0,76,0.00,,,0.00,Wunderground v.1.15,2013-02-02 11:55:00,
2013-02-02 02:05:00,71.3,63.7,30.02,East,92,8.0,11.0,77,0.00,,,0.00,Wunderground v.1.15,2013-02-02 12:05:00,
2013-02-02 02:15:00,71.4,63.8,30.02,East,87,8.0,14.0,77,0.00,,,0.00,Wunderground v.1.15,2013-02-02 12:15:00,
2013-02-02 02:25:00,71.4,63.4,30.01,East,91,9.0,13.0,76,0.00,,,0.00,Wunderground v.1.15,2013-02-02 12:25:00,
2013-02-02 02:30:00,71.3,63.7,30.01,ENE,60,8.0,8.0,77,0.00,,,0.00,Wunderground v.1.15,2013-02-02 12:30:00,
2013-02-02 02:40:00,71.3,63.7,30.01,ESE,107,8.0,8.0,77,0.00,,,0.00,Wunderground v.1.15,2013-02-02 12:40:00,
2013-02-02 02:50:00,71.2,63.6,30.01,ENE,68,8.0,8.0,77,0.00,,,0.00,Wunderground v.1.15,2013-02-02 12:50:00,
2013-02-02 03:00:00,71.3,63.7,30.01,ESE,110,8.0,8.0,77,0.00,,,0.00,Wunderground v.1.15,2013-02-02 13:00:00,
2013-02-02 03:05:00,71.3,64.1,30.01,ENE,78,8.0,10.0,78,0.00,,,0.00,Wunderground v.1.15,2013-02-02 13:05:00,
2013-02-02 03:15:00,71.2,64.0,30.01,East,99,7.0,8.0,78,0.00,,,0.00,Wunderground v.1.15,2013-02-02 13:15:00,
2013-02-02 03:25:00,71.4,63.8,30.01,ENE,73,7.0,10.0,77,0.00,,,0.00,Wunderground v.1.15,2013-02-02 13:25:00,
2013-02-02 03:35:00,71.4,63.4,30.01,ESE,114,6.0,7.0,76,0.00,,,0.00,Wunderground v.1.15,2013-02-02 13:35:00,
2013-02-02 03:45:00,71.4,63.4,30.02,ESE,103,6.0,6.0,76,0.00,,,0.00,Wunderground v.1.15,2013-02-02 13:45:00,
2013-02-02 03:50:00,71.4,63.1,30.02,East,96,6.0,6.0,75,0.00,,,0.00,Wunderground v.1.15,2013-02-02 13:50:00,
2013-02-02 04:00:00,71.3,63.0,30.03,East,101,4.0,4.0,75,0.00,,,0.00,Wunderground v.1.15,2013-02-02 14:00:00,
2013-02-02 04:05:00,71.2,62.9,30.03,ENE,73,4.0,5.0,75,0.00,,,0.00,Wunderground v.1.15,2013-02-02 14:05:00,
2013-02-02 04:15:00,71.1,62.8,30.03,ESE,113,4.0,4.0,75,0.00,,,0.00,Wunderground v.1.15,2013-02-02 14:15:00,
2013-02-02 04:25:00,71.0,62.7,30.03,ENE,67,4.0,6.0,75,0.00,,,0.00,Wunderground v.1.15,2013-02-02 14:25:00,
2013-02-02 04:35:00,71.1,62.4,30.03,ESE,107,5.0,5.0,74,0.00,,,0.00,Wunderground v.1.15,2013-02-02 14:35:00,
2013-02-02 04:45:00,71.2,62.5,30.03,ENE,65,5.0,11.0,74,0.00,,,0.00,Wunderground v.1.15,2013-02-02 14:45:00,
2013-02-02 04:55:00,71.1,62.4,30.03,ENE,76,4.0,5.0,74,0.00,,,0.00,Wunderground v.1.15,2013-02-02 14:55:00,
2013-02-02 05:05:00,71.2,62.1,30.04,ESE,105,6.0,6.0,73,0.00,,,0.00,Wunderground v.1.15,2013-02-02 15:05:00,
2013-02-02 05:15:00,71.4,62.3,30.04,ENE,62,6.0,13.0,73,0.00,,,0.00,Wunderground v.1.15,2013-02-02 15:15:00,
2013-02-02 05:25:00,71.5,62.0,30.04,ESE,107,6.0,10.0,72,0.00,,,0.00,Wunderground v.1.15,2013-02-02 15:25:00,
2013-02-02 05:35:00,71.6,62.5,30.04,East,80,6.0,13.0,73,0.00,,,0.00,Wunderground v.1.15,2013-02-02 15:35:00,
2013-02-02 05:45:00,71.6,63.3,30.05,ENE,71,6.0,11.0,75,0.00,,,0.00,Wunderground v.1.15,2013-02-02 15:45:00,
2013-02-02 05:55:00,71.4,62.7,30.05,East,87,5.0,6.0,74,0.00,,,0.00,Wunderground v.1.15,2013-02-02 15:55:00,
2013-02-02 06:00:00,71.3,62.6,30.06,East,92,5.0,5.0,74,0.00,,,0.00,Wunderground v.1.15,2013-02-02 16:00:00,
2013-02-02 06:05:00,71.4,62.3,30.06,ESE,118,6.0,11.0,73,0.00,,,0.00,Wunderground v.1.15,2013-02-02 16:05:00,
2013-02-02 06:15:00,71.3,61.4,30.07,ENE,73,5.0,5.0,71,0.00,,,0.00,Wunderground v.1.15,2013-02-02 16:15:00,
2013-02-02 06:25:00,71.4,60.7,30.07,ENE,59,5.0,9.0,69,0.00,,,0.00,Wunderground v.1.15,2013-02-02 16:25:00,
2013-02-02 06:35:00,71.6,61.3,30.07,NE,40,6.0,6.0,70,0.00,,,0.00,Wunderground v.1.15,2013-02-02 16:35:00,
2013-02-02 06:40:00,71.5,61.2,30.07,ENE,74,5.0,5.0,70,0.00,,,0.00,Wunderground v.1.15,2013-02-02 16:40:00,
2013-02-02 06:50:00,71.3,61.0,30.08,East,92,3.0,3.0,70,0.00,,,0.00,Wunderground v.1.15,2013-02-02 16:50:00,
2013-02-02 06:55:00,71.3,61.8,30.08,East,94,3.0,3.0,72,0.00,,,0.00,Wunderground v.1.15,2013-02-02 16:55:00,
2013-02-02 07:00:00,71.2,62.1,30.08,NE,42,4.0,7.0,73,0.00,,,0.00,Wunderground v.1.15,2013-02-02 17:00:00,
2013-02-02 07:05:00,71.3,62.6,30.08,ENE,63,5.0,7.0,74,0.00,,,0.00,Wunderground v.1.15,2013-02-02 17:05:00,
2013-02-02 07:15:00,71.3,62.6,30.09,ENE,78,6.0,10.0,74,0.00,,,0.00,Wunderground v.1.15,2013-02-02 17:15:00,
2013-02-02 07:25:00,71.2,62.5,30.09,ENE,74,5.0,12.0,74,0.00,,,0.00,Wunderground v.1.15,2013-02-02 17:25:00,
2013-02-02 07:35:00,71.2,62.5,30.09,SE,132,4.0,6.0,74,0.00,,,0.00,Wunderground v.1.15,2013-02-02 17:35:00,
2013-02-02 07:40:00,71.3,62.2,30.09,ESE,111,6.0,6.0,73,0.00,,,0.00,Wunderground v.1.15,2013-02-02 17:40:00,
2013-02-02 07:50:00,71.2,61.7,30.10,East,80,6.0,11.0,72,0.00,,,0.00,Wunderground v.1.15,2013-02-02 17:50:00,
2013-02-02 08:00:00,71.2,61.3,30.10,ESE,108,6.0,10.0,71,0.00,,,0.00,Wunderground v.1.15,2013-02-02 18:00:00,
2013-02-02 08:05:00,71.2,61.3,30.10,ENE,78,6.0,10.0,71,0.00,,,0.00,Wunderground v.1.15,2013-02-02 18:05:00,
2013-02-02 08:15:00,71.1,61.2,30.10,East,100,6.0,9.0,71,0.00,,,0.00,Wunderground v.1.15,2013-02-02 18:15:00,
2013-02-02 08:25:00,71.2,61.3,30.11,East,96,8.0,13.0,71,0.00,,,0.00,Wunderground v.1.15,2013-02-02 18:25:00,
2013-02-02 08:30:00,71.2,61.3,30.11,East,100,7.0,10.0,71,0.00,,,0.00,Wunderground v.1.15,2013-02-02 18:30:00,
2013-02-02 08:40:00,71.3,60.6,30.11,East,89,7.0,7.0,69,0.00,,,0.00,Wunderground v.1.15,2013-02-02 18:40:00,
2013-02-02 08:50:00,71.4,60.7,30.11,ESE,103,7.0,12.0,69,0.00,,,0.00,Wunderground v.1.15,2013-02-02 18:50:00,
2013-02-02 09:00:00,71.6,60.5,30.11,ENE,78,6.0,7.0,68,0.00,,,0.00,Wunderground v.1.15,2013-02-02 19:00:00,
2013-02-02 09:05:00,71.7,60.6,30.12,East,91,7.0,12.0,68,0.00,,,0.00,Wunderground v.1.15,2013-02-02 19:05:00,
2013-02-02 09:15:00,71.8,61.5,30.12,East,94,6.0,7.0,70,0.00,,,0.00,Wunderground v.1.15,2013-02-02 19:15:00,
2013-02-02 09:20:00,72.5,61.3,30.12,ENE,68,6.0,11.0,68,0.00,,,0.00,Wunderground v.1.15,2013-02-02 19:20:00,
2013-02-02 09:30:00,73.5,61.0,30.12,East,80,7.0,9.0,65,0.00,,,0.00,Wunderground v.1.15,2013-02-02 19:30:00,
2013-02-02 09:40:00,73.9,61.0,30.12,NE,56,6.0,6.0,64,0.00,,,0.00,Wunderground v.1.15,2013-02-02 19:40:00,
2013-02-02 09:50:00,74.0,61.0,30.12,ENE,64,8.0,8.0,64,0.00,,,0.00,Wunderground v.1.15,2013-02-02 19:50:00,
2013-02-02 10:00:00,74.0,61.0,30.12,East,91,8.0,9.0,64,0.00,,,0.00,Wunderground v.1.15,2013-02-02 20:00:00,
2013-02-02 10:05:00,74.2,61.2,30.12,ESE,102,7.0,9.0,64,0.00,,,0.00,Wunderground v.1.15,2013-02-02 20:05:00,
2013-02-02 10:15:00,74.7,60.4,30.12,East,99,7.0,18.0,61,0.00,,,0.00,Wunderground v.1.15,2013-02-02 20:15:00,
2013-02-02 10:25:00,75.4,60.5,30.12,East,95,7.0,13.0,60,0.00,,,0.00,Wunderground v.1.15,2013-02-02 20:25:00,
2013-02-02 10:35:00,75.6,60.7,30.12,ESE,103,7.0,7.0,60,0.00,,,0.00,Wunderground v.1.15,2013-02-02 20:35:00,
2013-02-02 10:45:00,75.4,61.0,30.12,East,85,8.0,8.0,61,0.00,,,0.00,Wunderground v.1.15,2013-02-02 20:45:00,
2013-02-02 10:55:00,75.8,61.8,30.11,East,93,8.0,12.0,62,0.00,,,0.00,Wunderground v.1.15,2013-02-02 20:55:00,
2013-02-02 11:05:00,75.5,60.6,30.11,ENE,70,10.0,11.0,60,0.00,,,0.00,Wunderground v.1.15,2013-02-02 21:05:00,
2013-02-02 11:15:00,75.7,60.8,30.11,ENE,72,9.0,11.0,60,0.00,,,0.00,Wunderground v.1.15,2013-02-02 21:15:00,
2013-02-02 11:25:00,75.8,61.8,30.11,East,91,9.0,17.0,62,0.00,,,0.00,Wunderground v.1.15,2013-02-02 21:25:00,
2013-02-02 11:35:00,75.7,61.8,30.11,ESE,118,9.0,12.0,62,0.00,,,0.00,Wunderground v.1.15,2013-02-02 21:35:00,
2013-02-02 11:40:00,75.7,62.7,30.10,East,92,9.0,9.0,64,0.00,,,0.00,Wunderground v.1.15,2013-02-02 21:40:00,
2013-02-02 11:50:00,76.1,62.1,30.10,East,83,7.0,7.0,62,0.00,,,0.00,Wunderground v.1.15,2013-02-02 21:50:00,
2013-02-02 12:00:00,76.0,62.5,30.10,ESE,107,8.0,8.0,63,0.00,,,0.00,Wunderground v.1.15,2013-02-02 22:00:00,
2013-02-02 12:05:00,76.6,62.1,30.10,ENE,74,6.0,11.0,61,0.00,,,0.00,Wunderground v.1.15,2013-02-02 22:05:00,
2013-02-02 12:15:00,76.2,61.8,30.10,East,101,9.0,10.0,61,0.00,,,0.00,Wunderground v.1.15,2013-02-02 22:15:00,
2013-02-02 12:20:00,75.7,61.3,30.09,ENE,75,10.0,11.0,61,0.00,,,0.00,Wunderground v.1.15,2013-02-02 22:20:00,
2013-02-02 12:30:00,75.7,62.2,30.09,East,90,10.0,10.0,63,0.00,,,0.00,Wunderground v.1.15,2013-02-02 22:30:00,
2013-02-02 12:35:00,75.7,62.2,30.09,East,97,9.0,10.0,63,0.00,,,0.00,Wunderground v.1.15,2013-02-02 22:35:00,
2013-02-02 12:45:00,76.4,62.4,30.09,ENE,69,7.0,8.0,62,0.00,,,0.00,Wunderground v.1.15,2013-02-02 22:45:00,
2013-02-02 12:55:00,75.7,61.8,30.09,ENE,61,9.0,9.0,62,0.00,,,0.00,Wunderground v.1.15,2013-02-02 22:55:00,
2013-02-02 13:00:00,76.0,61.6,30.08,East,88,8.0,8.0,61,0.00,,,0.00,Wunderground v.1.15,2013-02-02 23:00:00,
2013-02-02 13:05:00,76.1,61.2,30.08,ESE,103,8.0,8.0,60,0.00,,,0.00,Wunderground v.1.15,2013-02-02 23:05:00,
2013-02-02 13:15:00,76.4,60.5,30.08,ESE,115,7.0,7.0,58,0.00,,,0.00,Wunderground v.1.15,2013-02-02 23:15:00,
2013-02-02 13:20:00,76.5,61.1,30.07,East,88,6.0,6.0,59,0.00,,,0.00,Wunderground v.1.15,2013-02-02 23:20:00,
2013-02-02 13:30:00,76.0,60.2,30.07,East,101,8.0,11.0,58,0.00,,,0.00,Wunderground v.1.15,2013-02-02 23:30:00,
2013-02-02 13:40:00,75.7,60.4,30.07,ESE,115,9.0,9.0,59,0.00,,,0.00,Wunderground v.1.15,2013-02-02 23:40:00,
2013-02-02 13:45:00,75.5,60.6,30.07,ESE,121,9.0,10.0,60,0.00,,,0.00,Wunderground v.1.15,2013-02-02 23:45:00,
2013-02-02 13:50:00,75.7,60.8,30.07,ESE,102,9.0,10.0,60,0.00,,,0.00,Wunderground v.1.15,2013-02-02 23:50:00,
2013-02-02 14:00:00,75.3,61.4,30.06,ESE,116,10.0,10.0,62,0.00,,,0.00,Wunderground v.1.15,2013-02-03 00:00:00,
2013-02-02 14:05:00,75.5,61.1,30.06,ESE,113,9.0,13.0,61,0.00,,,0.00,Wunderground v.1.15,2013-02-03 00:05:00,
2013-02-02 14:15:00,75.8,60.9,30.06,ESE,118,8.0,9.0,60,0.00,,,0.00,Wunderground v.1.15,2013-02-03 00:15:00,
2013-02-02 14:25:00,75.2,60.4,30.07,East,95,9.0,9.0,60,0.00,,,0.00,Wunderground v.1.15,2013-02-03 00:25:00,
2013-02-02 14:35:00,75.0,61.1,30.06,East,82,10.0,13.0,62,0.00,,,0.00,Wunderground v.1.15,2013-02-03 00:35:00,
2013-02-02 14:40:00,75.1,61.2,30.06,East,99,9.0,9.0,62,0.00,,,0.00,Wunderground v.1.15,2013-02-03 00:40:00,
2013-02-02 14:45:00,74.9,60.5,30.06,ESE,110,9.0,11.0,61,0.00,,,0.00,Wunderground v.1.15,2013-02-03 00:45:00,
2013-02-02 14:55:00,75.2,60.4,30.06,ENE,76,8.0,12.0,60,0.00,,,0.00,Wunderground v.1.15,2013-02-03 00:55:00,
2013-02-02 15:05:00,74.7,59.9,30.05,SE,142,10.0,12.0,60,0.00,,,0.00,Wunderground v.1.15,2013-02-03 01:05:00,
2013-02-02 15:15:00,74.8,60.9,30.05,ESE,118,8.0,9.0,62,0.00,,,0.00,Wunderground v.1.15,2013-02-03 01:15:00,
2013-02-02 15:20:00,74.7,60.4,30.05,East,80,8.0,10.0,61,0.00,,,0.00,Wunderground v.1.15,2013-02-03 01:20:00,
2013-02-02 15:30:00,74.6,60.3,30.05,East,80,8.0,8.0,61,0.00,,,0.00,Wunderground v.1.15,2013-02-03 01:30:00,
2013-02-02 15:40:00,74.6,60.7,30.05,East,83,7.0,7.0,62,0.00,,,0.00,Wunderground v.1.15,2013-02-03 01:40:00,
2013-02-02 15:45:00,74.5,60.6,30.05,ESE,105,8.0,8.0,62,0.00,,,0.00,Wunderground v.1.15,2013-02-03 01:45:00,
2013-02-02 15:55:00,74.2,60.3,30.06,ENE,64,8.0,10.0,62,0.00,,,0.00,Wunderground v.1.15,2013-02-03 01:55:00,
2013-02-02 16:00:00,74.1,60.2,30.06,East,97,8.0,8.0,62,0.00,,,0.00,Wunderground v.1.15,2013-02-03 02:00:00,
2013-02-02 16:05:00,73.8,59.5,30.06,East,98,9.0,9.0,61,0.00,,,0.00,Wunderground v.1.15,2013-02-03 02:05:00,
2013-02-02 16:15:00,73.8,60.0,30.06,East,94,9.0,10.0,62,0.00,,,0.00,Wunderground v.1.15,2013-02-03 02:15:00,
2013-02-02 16:20:00,73.9,60.5,30.06,East,96,8.0,8.0,63,0.00,,,0.00,Wunderground v.1.15,2013-02-03 02:20:00,
2013-02-02 16:30:00,73.9,60.5,30.06,East,80,6.0,6.0,63,0.00,,,0.00,Wunderground v.1.15,2013-02-03 02:30:00,
2013-02-02 16:40:00,73.8,60.0,30.06,ENE,69,7.0,7.0,62,0.00,,,0.00,Wunderground v.1.15,2013-02-03 02:40:00,
2013-02-02 16:45:00,73.8,60.0,30.06,ESE,111,6.0,7.0,62,0.00,,,0.00,Wunderground v.1.15,2013-02-03 02:45:00,
2013-02-02 16:55:00,73.4,60.0,30.07,East,90,7.0,7.0,63,0.00,,,0.00,Wunderground v.1.15,2013-02-03 02:55:00,
2013-02-02 17:00:00,73.2,59.8,30.07,East,89,7.0,7.0,63,0.00,,,0.00,Wunderground v.1.15,2013-02-03 03:00:00,
2013-02-02 17:05:00,73.2,60.3,30.07,ENE,75,7.0,7.0,64,0.00,,,0.00,Wunderground v.1.15,2013-02-03 03:05:00,
2013-02-02 17:15:00,73.0,59.7,30.07,East,92,6.0,6.0,63,0.00,,,0.00,Wunderground v.1.15,2013-02-03 03:15:00,
2013-02-02 17:20:00,72.8,59.5,30.07,East,101,7.0,7.0,63,0.00,,,0.00,Wunderground v.1.15,2013-02-03 03:20:00,
2013-02-02 17:30:00,72.5,59.6,30.08,ENE,75,7.0,7.0,64,0.00,,,0.00,Wunderground v.1.15,2013-02-03 03:30:00,
2013-02-02 17:40:00,72.1,60.1,30.07,ENE,74,6.0,6.0,66,0.00,,,0.00,Wunderground v.1.15,2013-02-03 03:40:00,
2013-02-02 17:50:00,71.7,60.2,30.08,ENE,65,6.0,6.0,67,0.00,,,0.00,Wunderground v.1.15,2013-02-03 03:50:00,
2013-02-02 18:00:00,71.5,60.0,30.08,East,93,5.0,7.0,67,0.00,,,0.00,Wunderground v.1.15,2013-02-03 04:00:00,
2013-02-02 18:05:00,71.4,60.3,30.08,ENE,67,5.0,9.0,68,0.00,,,0.00,Wunderground v.1.15,2013-02-03 04:05:00,
2013-02-02 18:15:00,71.1,60.4,30.09,ESE,108,4.0,5.0,69,0.00,,,0.00,Wunderground v.1.15,2013-02-03 04:15:00,
2013-02-02 18:25:00,70.8,59.7,30.09,ENE,67,5.0,5.0,68,0.00,,,0.00,Wunderground v.1.15,2013-02-03 04:25:00,
2013-02-02 18:35:00,70.5,59.8,30.09,East,101,2.0,6.0,69,0.00,,,0.00,Wunderground v.1.15,2013-02-03 04:35:00,
2013-02-02 18:40:00,70.3,59.6,30.09,ESE,115,3.0,6.0,69,0.00,,,0.00,Wunderground v.1.15,2013-02-03 04:40:00,
2013-02-02 18:45:00,70.3,60.1,30.09,ESE,103,3.0,6.0,70,0.00,,,0.00,Wunderground v.1.15,2013-02-03 04:45:00,
2013-02-02 18:50:00,70.3,60.1,30.09,ESE,107,4.0,10.0,70,0.00,,,0.00,Wunderground v.1.15,2013-02-03 04:50:00,
2013-02-02 19:00:00,70.7,59.6,30.09,East,83,8.0,10.0,68,0.00,,,0.00,Wunderground v.1.15,2013-02-03 05:00:00,
2013-02-02 19:05:00,70.7,59.2,30.09,ESE,109,7.0,10.0,67,0.00,,,0.00,Wunderground v.1.15,2013-02-03 05:05:00,
2013-02-02 19:15:00,70.7,58.8,30.10,East,80,6.0,6.0,66,0.00,,,0.00,Wunderground v.1.15,2013-02-03 05:15:00,
2013-02-02 19:20:00,70.4,58.5,30.10,ENE,73,6.0,8.0,66,0.00,,,0.00,Wunderground v.1.15,2013-02-03 05:20:00,
2013-02-02 19:30:00,70.3,58.4,30.10,East,80,5.0,6.0,66,0.00,,,0.00,Wunderground v.1.15,2013-02-03 05:30:00,
2013-02-02 19:35:00,70.2,58.3,30.10,ESE,122,5.0,7.0,66,0.00,,,0.00,Wunderground v.1.15,2013-02-03 05:35:00,
2013-02-02 19:45:00,70.1,58.2,30.10,ENE,65,5.0,7.0,66,0.00,,,0.00,Wunderground v.1.15,2013-02-03 05:45:00,
2013-02-02 19:55:00,70.0,57.7,30.10,ESE,103,5.0,5.0,65,0.00,,,0.00,Wunderground v.1.15,2013-02-03 05:55:00,
2013-02-02 20:05:00,69.8,57.9,30.10,East,90,4.0,6.0,66,0.00,,,0.00,Wunderground v.1.15,2013-02-03 06:05:00,
2013-02-02 20:15:00,69.7,58.3,30.11,East,94,4.0,5.0,67,0.00,,,0.00,Wunderground v.1.15,2013-02-03 06:15:00,
2013-02-02 20:25:00,69.6,58.6,30.11,ENE,71,4.0,5.0,68,0.00,,,0.00,Wunderground v.1.15,2013-02-03 06:25:00,
2013-02-02 20:35:00,69.6,59.0,30.11,East,92,4.0,10.0,69,0.00,,,0.00,Wunderground v.1.15,2013-02-03 06:35:00,
2013-02-02 20:40:00,69.6,59.0,30.11,East,88,4.0,4.0,69,0.00,,,0.00,Wunderground v.1.15,2013-02-03 06:40:00,
2013-02-02 20:45:00,69.5,58.9,30.12,East,86,4.0,5.0,69,0.00,,,0.00,Wunderground v.1.15,2013-02-03 06:45:00,
2013-02-02 20:55:00,69.6,59.0,30.11,ENE,71,5.0,7.0,69,0.00,,,0.00,Wunderground v.1.15,2013-02-03 06:55:00,
2013-02-02 21:00:00,69.8,58.8,30.11,ESE,104,5.0,10.0,68,0.00,,,0.00,Wunderground v.1.15,2013-02-03 07:00:00,
2013-02-02 21:05:00,69.7,58.3,30.11,ENE,78,5.0,10.0,67,0.00,,,0.00,Wunderground v.1.15,2013-02-03 07:05:00,
2013-02-02 21:15:00,69.5,58.5,30.11,East,94,4.0,6.0,68,0.00,,,0.00,Wunderground v.1.15,2013-02-03 07:15:00,
2013-02-02 21:25:00,69.2,58.6,30.12,ENE,70,3.0,4.0,69,0.00,,,0.00,Wunderground v.1.15,2013-02-03 07:25:00,
2013-02-02 21:35:00,69.2,58.6,30.11,East,80,4.0,4.0,69,0.00,,,0.00,Wunderground v.1.15,2013-02-03 07:35:00,
2013-02-02 21:40:00,69.2,58.6,30.11,East,87,4.0,4.0,69,0.00,,,0.00,Wunderground v.1.15,2013-02-03 07:40:00,
2013-02-02 21:50:00,69.2,58.6,30.11,ESE,102,5.0,5.0,69,0.00,,,0.00,Wunderground v.1.15,2013-02-03 07:50:00,
2013-02-02 22:00:00,69.1,58.5,30.11,ENE,69,5.0,6.0,69,0.00,,,0.00,Wunderground v.1.15,2013-02-03 08:00:00,
2013-02-02 22:05:00,69.1,58.5,30.11,ENE,58,5.0,7.0,69,0.00,,,0.00,Wunderground v.1.15,2013-02-03 08:05:00,
2013-02-02 22:15:00,69.2,58.2,30.11,East,88,6.0,6.0,68,0.00,,,0.00,Wunderground v.1.15,2013-02-03 08:15:00,
2013-02-02 22:25:00,69.2,58.2,30.11,East,82,5.0,6.0,68,0.00,,,0.00,Wunderground v.1.15,2013-02-03 08:25:00,
2013-02-02 22:35:00,69.0,58.4,30.11,East,88,4.0,5.0,69,0.00,,,0.00,Wunderground v.1.15,2013-02-03 08:35:00,
2013-02-02 22:45:00,68.8,58.6,30.11,ENE,78,3.0,4.0,70,0.00,,,0.00,Wunderground v.1.15,2013-02-03 08:45:00,
2013-02-02 22:55:00,68.6,58.8,30.11,ENE,74,3.0,4.0,71,0.00,,,0.00,Wunderground v.1.15,2013-02-03 08:55:00,
2013-02-02 23:05:00,68.5,58.7,30.10,East,83,3.0,5.0,71,0.00,,,0.00,Wunderground v.1.15,2013-02-03 09:05:00,
2013-02-02 23:15:00,68.7,58.9,30.11,East,88,3.0,7.0,71,0.00,,,0.00,Wunderground v.1.15,2013-02-03 09:15:00,
2013-02-02 23:20:00,68.7,58.5,30.11,NE,38,3.0,4.0,70,0.00,,,0.00,Wunderground v.1.15,2013-02-03 09:20:00,
2013-02-02 23:25:00,68.6,58.4,30.11,NNE,30,3.0,4.0,70,0.00,,,0.00,Wunderground v.1.15,2013-02-03 09:25:00,
2013-02-02 23:30:00,68.4,58.2,30.11,NE,51,3.0,3.0,70,0.00,,,0.00,Wunderground v.1.15,2013-02-03 09:30:00,
2013-02-02 23:35:00,68.2,58.0,30.11,NE,55,2.0,3.0,70,0.00,,,0.00,Wunderground v.1.15,2013-02-03 09:35:00,
2013-02-02 23:45:00,68.3,58.5,30.11,NE,46,2.0,2.0,71,0.00,,,0.00,Wunderground v.1.15,2013-02-03 09:45:00,
2013-02-02 23:55:00,68.2,58.4,30.11,East,85,3.0,3.0,71,0.00,,,0.00,Wunderground v.1.15,2013-02-03 09:55:00,